sensor_id;sensor_type;location;lat;lon;timestamp;P1;durP1;ratioP1;P2;durP2;ratioP2
27684;SDS011;46113;50.130;8.526;2022-10-24T04:16:26;10.98;;;3.40;;
27684;SDS011;46113;50.130;8.526;2022-10-24T04:18:55;6.18;;;2.60;;
27684;SDS011;46113;50.130;8.526;2022-10-24T04:21:33;6.97;;;2.92;;
27684;SDS011;46113;50.130;8.526;2022-10-24T04:23:59;9.82;;;2.88;;
27684;SDS011;46113;50.130;8.526;2022-10-24T04:26:26;4.63;;;2.50;;
27684;SDS011;46113;50.130;8.526;2022-10-24T04:28:54;14.27;;;3.33;;
27684;SDS011;46113;50.130;8.526;2022-10-24T04:31:21;10.57;;;3.30;;
27684;SDS011;46113;50.130;8.526;2022-10-24T04:33:49;5.97;;;2.45;;
27684;SDS011;46113;50.130;8.526;2022-10-24T04:36:15;11.00;;;2.45;;
27684;SDS011;46113;50.130;8.526;2022-10-24T04:38:42;8.07;;;3.25;;
27684;SDS011;46113;50.130;8.526;2022-10-24T04:41:09;8.68;;;3.03;;
27684;SDS011;46113;50.130;8.526;2022-10-24T04:43:37;6.13;;;2.85;;
27684;SDS011;46113;50.130;8.526;2022-10-24T04:46:06;7.55;;;3.55;;
27684;SDS011;46113;50.130;8.526;2022-10-24T04:48:44;12.32;;;2.80;;
27684;SDS011;46113;50.130;8.526;2022-10-24T04:51:11;11.13;;;3.28;;
27684;SDS011;46113;50.130;8.526;2022-10-24T04:53:38;7.95;;;3.08;;
27684;SDS011;46113;50.130;8.526;2022-10-24T04:56:06;14.32;;;3.70;;
27684;SDS011;46113;50.130;8.526;2022-10-24T04:58:33;11.63;;;2.83;;
27684;SDS011;46113;50.130;8.526;2022-10-24T05:00:59;9.63;;;3.03;;
27684;SDS011;46113;50.130;8.526;2022-10-24T05:03:26;9.57;;;3.13;;
27684;SDS011;46113;50.130;8.526;2022-10-24T05:05:52;10.18;;;3.38;;
27684;SDS011;46113;50.130;8.526;2022-10-24T05:08:19;10.25;;;2.97;;
27684;SDS011;46113;50.130;8.526;2022-10-24T05:10:46;14.93;;;3.03;;
27684;SDS011;46113;50.130;8.526;2022-10-24T05:13:12;7.05;;;2.95;;
27684;SDS011;46113;50.130;8.526;2022-10-24T05:15:39;12.45;;;3.53;;
27684;SDS011;46113;50.130;8.526;2022-10-24T05:18:05;9.23;;;2.72;;
27684;SDS011;46113;50.130;8.526;2022-10-24T05:20:32;11.30;;;3.45;;
27684;SDS011;46113;50.130;8.526;2022-10-24T05:22:58;9.05;;;3.55;;
27684;SDS011;46113;50.130;8.526;2022-10-24T05:25:25;7.43;;;3.58;;
27684;SDS011;46113;50.130;8.526;2022-10-24T05:27:51;10.75;;;3.03;;
27684;SDS011;46113;50.130;8.526;2022-10-24T05:30:18;6.88;;;3.33;;
27684;SDS011;46113;50.130;8.526;2022-10-24T05:32:45;11.30;;;3.50;;
27684;SDS011;46113;50.130;8.526;2022-10-24T05:35:12;6.13;;;4.13;;
27684;SDS011;46113;50.130;8.526;2022-10-24T05:37:39;9.15;;;3.65;;
27684;SDS011;46113;50.130;8.526;2022-10-24T05:40:06;7.40;;;2.78;;
27684;SDS011;46113;50.130;8.526;2022-10-24T05:42:34;10.23;;;3.25;;
27684;SDS011;46113;50.130;8.526;2022-10-24T05:45:01;10.18;;;2.78;;
27684;SDS011;46113;50.130;8.526;2022-10-24T05:47:27;5.43;;;2.83;;
27684;SDS011;46113;50.130;8.526;2022-10-24T05:49:54;7.07;;;3.08;;
27684;SDS011;46113;50.130;8.526;2022-10-24T05:52:21;5.07;;;2.92;;
27684;SDS011;46113;50.130;8.526;2022-10-24T05:54:47;7.10;;;3.28;;
27684;SDS011;46113;50.130;8.526;2022-10-24T05:57:31;13.30;;;3.78;;
27684;SDS011;46113;50.130;8.526;2022-10-24T05:59:58;11.13;;;3.28;;
27684;SDS011;46113;50.130;8.526;2022-10-24T06:02:25;8.40;;;4.60;;
27684;SDS011;46113;50.130;8.526;2022-10-24T06:04:52;14.15;;;6.80;;
27684;SDS011;46113;50.130;8.526;2022-10-24T06:07:20;9.18;;;4.57;;
27684;SDS011;46113;50.130;8.526;2022-10-24T06:09:47;12.00;;;5.60;;
27684;SDS011;46113;50.130;8.526;2022-10-24T06:12:13;15.65;;;4.25;;
27684;SDS011;46113;50.130;8.526;2022-10-24T06:14:40;9.15;;;4.75;;
27684;SDS011;46113;50.130;8.526;2022-10-24T06:17:06;17.42;;;4.13;;
27684;SDS011;46113;50.130;8.526;2022-10-24T06:19:35;12.10;;;3.42;;
27684;SDS011;46113;50.130;8.526;2022-10-24T06:22:02;17.42;;;5.03;;
27684;SDS011;46113;50.130;8.526;2022-10-24T06:24:29;6.28;;;2.90;;
27684;SDS011;46113;50.130;8.526;2022-10-24T06:26:56;11.13;;;3.50;;
27684;SDS011;46113;50.130;8.526;2022-10-24T06:29:23;16.20;;;4.15;;
27684;SDS011;46113;50.130;8.526;2022-10-24T06:31:49;6.80;;;3.25;;
27684;SDS011;46113;50.130;8.526;2022-10-24T06:34:15;8.82;;;3.30;;
27684;SDS011;46113;50.130;8.526;2022-10-24T06:36:42;7.22;;;3.53;;
27684;SDS011;46113;50.130;8.526;2022-10-24T06:39:09;11.57;;;3.63;;
27684;SDS011;46113;50.130;8.526;2022-10-24T06:41:35;7.50;;;3.85;;
27684;SDS011;46113;50.130;8.526;2022-10-24T06:44:02;11.32;;;4.00;;
27684;SDS011;46113;50.130;8.526;2022-10-24T06:46:35;9.32;;;3.40;;
27684;SDS011;46113;50.130;8.526;2022-10-24T06:51:57;15.88;;;3.80;;
27684;SDS011;46113;50.130;8.526;2022-10-24T06:54:24;12.75;;;3.50;;
27684;SDS011;46113;50.130;8.526;2022-10-24T06:56:55;7.43;;;3.78;;
27684;SDS011;46113;50.130;8.526;2022-10-24T06:59:22;7.07;;;2.97;;
27684;SDS011;46113;50.130;8.526;2022-10-24T07:01:50;13.98;;;4.60;;
27684;SDS011;46113;50.130;8.526;2022-10-24T07:04:17;6.90;;;3.50;;
27684;SDS011;46113;50.130;8.526;2022-10-24T07:06:44;8.80;;;4.22;;
27684;SDS011;46113;50.130;8.526;2022-10-24T07:09:10;8.32;;;3.03;;
27684;SDS011;46113;50.130;8.526;2022-10-24T07:11:40;8.57;;;3.45;;
27684;SDS011;46113;50.130;8.526;2022-10-24T07:14:07;13.40;;;3.55;;
27684;SDS011;46113;50.130;8.526;2022-10-24T07:16:35;3.45;;;2.67;;
27684;SDS011;46113;50.130;8.526;2022-10-24T07:19:02;15.18;;;3.05;;
27684;SDS011;46113;50.130;8.526;2022-10-24T07:21:30;10.85;;;3.10;;
27684;SDS011;46113;50.130;8.526;2022-10-24T07:23:58;7.22;;;3.05;;
27684;SDS011;46113;50.130;8.526;2022-10-24T07:26:26;9.45;;;3.10;;
27684;SDS011;46113;50.130;8.526;2022-10-24T07:28:55;10.18;;;2.90;;
27684;SDS011;46113;50.130;8.526;2022-10-24T07:31:26;4.57;;;3.03;;
27684;SDS011;46113;50.130;8.526;2022-10-24T07:33:55;7.88;;;2.53;;
27684;SDS011;46113;50.130;8.526;2022-10-24T07:36:22;9.27;;;2.30;;
27684;SDS011;46113;50.130;8.526;2022-10-24T07:38:51;9.35;;;3.00;;
27684;SDS011;46113;50.130;8.526;2022-10-24T07:41:19;8.50;;;3.33;;
27684;SDS011;46113;50.130;8.526;2022-10-24T07:43:46;9.85;;;3.90;;
27684;SDS011;46113;50.130;8.526;2022-10-24T07:46:13;5.70;;;2.83;;
27684;SDS011;46113;50.130;8.526;2022-10-24T07:48:41;8.38;;;2.80;;
27684;SDS011;46113;50.130;8.526;2022-10-24T07:51:10;10.07;;;4.15;;
27684;SDS011;46113;50.130;8.526;2022-10-24T07:53:39;10.25;;;3.72;;
27684;SDS011;46113;50.130;8.526;2022-10-24T07:56:06;8.32;;;3.53;;
27684;SDS011;46113;50.130;8.526;2022-10-24T07:58:36;7.38;;;2.42;;
27684;SDS011;46113;50.130;8.526;2022-10-24T08:01:06;10.98;;;2.72;;
27684;SDS011;46113;50.130;8.526;2022-10-24T08:03:35;6.27;;;3.03;;
27684;SDS011;46113;50.130;8.526;2022-10-24T08:06:06;12.52;;;3.55;;
27684;SDS011;46113;50.130;8.526;2022-10-24T08:08:34;8.88;;;2.92;;
27684;SDS011;46113;50.130;8.526;2022-10-24T08:11:07;10.75;;;2.72;;
27684;SDS011;46113;50.130;8.526;2022-10-24T08:13:41;10.23;;;2.90;;
27684;SDS011;46113;50.130;8.526;2022-10-24T08:16:09;7.30;;;2.88;;
27684;SDS011;46113;50.130;8.526;2022-10-24T08:18:38;11.90;;;3.17;;
27684;SDS011;46113;50.130;8.526;2022-10-24T08:21:06;9.57;;;3.28;;
27684;SDS011;46113;50.130;8.526;2022-10-24T08:23:38;11.65;;;2.85;;
27684;SDS011;46113;50.130;8.526;2022-10-24T08:26:07;7.68;;;2.38;;
27684;SDS011;46113;50.130;8.526;2022-10-24T08:28:34;8.48;;;3.10;;
27684;SDS011;46113;50.130;8.526;2022-10-24T08:31:05;16.50;;;2.85;;
27684;SDS011;46113;50.130;8.526;2022-10-24T08:33:34;11.52;;;3.15;;
27684;SDS011;46113;50.130;8.526;2022-10-24T08:36:02;10.60;;;3.08;;
27684;SDS011;46113;50.130;8.526;2022-10-24T08:38:31;9.27;;;3.20;;
27684;SDS011;46113;50.130;8.526;2022-10-24T08:40:57;13.60;;;2.78;;
27684;SDS011;46113;50.130;8.526;2022-10-24T08:43:25;9.10;;;3.00;;
27684;SDS011;46113;50.130;8.526;2022-10-24T08:46:04;7.53;;;2.63;;
27684;SDS011;46113;50.130;8.526;2022-10-24T08:49:09;7.10;;;2.55;;
27684;SDS011;46113;50.130;8.526;2022-10-24T08:51:42;7.10;;;2.72;;
27684;SDS011;46113;50.130;8.526;2022-10-24T08:54:15;8.18;;;2.60;;
27684;SDS011;46113;50.130;8.526;2022-10-24T08:56:48;11.43;;;2.97;;
27684;SDS011;46113;50.130;8.526;2022-10-24T08:59:20;13.10;;;3.67;;
27684;SDS011;46113;50.130;8.526;2022-10-24T09:01:47;17.98;;;4.70;;
27684;SDS011;46113;50.130;8.526;2022-10-24T09:04:18;11.88;;;3.30;;
27684;SDS011;46113;50.130;8.526;2022-10-24T09:06:54;11.98;;;2.70;;
27684;SDS011;46113;50.130;8.526;2022-10-24T09:09:29;27.73;;;7.78;;
27684;SDS011;46113;50.130;8.526;2022-10-24T09:12:07;11.77;;;3.83;;
27684;SDS011;46113;50.130;8.526;2022-10-24T09:14:40;13.63;;;3.72;;
27684;SDS011;46113;50.130;8.526;2022-10-24T09:17:19;14.80;;;3.28;;
27684;SDS011;46113;50.130;8.526;2022-10-24T09:19:52;8.65;;;2.92;;
27684;SDS011;46113;50.130;8.526;2022-10-24T09:22:25;14.13;;;3.15;;
27684;SDS011;46113;50.130;8.526;2022-10-24T09:24:56;17.10;;;3.40;;
27684;SDS011;46113;50.130;8.526;2022-10-24T09:27:27;7.60;;;2.55;;
27684;SDS011;46113;50.130;8.526;2022-10-24T09:29:57;13.18;;;3.40;;
27684;SDS011;46113;50.130;8.526;2022-10-24T09:32:24;9.05;;;3.10;;
27684;SDS011;46113;50.130;8.526;2022-10-24T09:34:59;6.85;;;2.30;;
27684;SDS011;46113;50.130;8.526;2022-10-24T09:37:41;13.55;;;2.70;;
27684;SDS011;46113;50.130;8.526;2022-10-24T09:40:25;7.82;;;2.35;;
27684;SDS011;46113;50.130;8.526;2022-10-24T09:42:56;10.98;;;2.55;;
27684;SDS011;46113;50.130;8.526;2022-10-24T09:45:34;6.60;;;2.65;;
27684;SDS011;46113;50.130;8.526;2022-10-24T09:48:15;15.80;;;2.63;;
27684;SDS011;46113;50.130;8.526;2022-10-24T09:50:42;11.68;;;4.03;;
27684;SDS011;46113;50.130;8.526;2022-10-24T09:53:25;12.07;;;4.57;;
27684;SDS011;46113;50.130;8.526;2022-10-24T09:56:15;11.10;;;3.05;;
27684;SDS011;46113;50.130;8.526;2022-10-24T09:58:45;12.18;;;3.42;;
27684;SDS011;46113;50.130;8.526;2022-10-24T10:03:42;11.75;;;2.85;;
27684;SDS011;46113;50.130;8.526;2022-10-24T10:06:19;14.10;;;3.50;;
27684;SDS011;46113;50.130;8.526;2022-10-24T10:08:49;12.20;;;3.13;;
27684;SDS011;46113;50.130;8.526;2022-10-24T10:11:25;9.90;;;3.15;;
27684;SDS011;46113;50.130;8.526;2022-10-24T10:13:59;9.48;;;2.90;;
27684;SDS011;46113;50.130;8.526;2022-10-24T10:16:36;15.02;;;3.10;;
27684;SDS011;46113;50.130;8.526;2022-10-24T10:27:25;10.88;;;2.35;;
27684;SDS011;46113;50.130;8.526;2022-10-24T10:30:08;10.55;;;2.63;;
27684;SDS011;46113;50.130;8.526;2022-10-24T10:35:27;12.10;;;2.70;;
27684;SDS011;46113;50.130;8.526;2022-10-24T10:44:25;9.52;;;1.90;;
27684;SDS011;46113;50.130;8.526;2022-10-24T11:07:29;10.00;;;2.33;;
27684;SDS011;46113;50.130;8.526;2022-10-24T11:13:02;8.43;;;3.15;;
27684;SDS011;46113;50.130;8.526;2022-10-24T11:15:39;6.90;;;2.35;;
27684;SDS011;46113;50.130;8.526;2022-10-24T11:21:06;3.85;;;2.00;;
27684;SDS011;46113;50.130;8.526;2022-10-24T11:29:35;12.00;;;1.42;;
27684;SDS011;46113;50.130;8.526;2022-10-24T11:35:30;6.03;;;2.17;;
27684;SDS011;46113;50.130;8.526;2022-10-24T11:38:01;6.70;;;1.70;;
27684;SDS011;46113;50.130;8.526;2022-10-24T11:40:36;6.15;;;1.80;;
27684;SDS011;46113;50.130;8.526;2022-10-24T11:45:48;7.53;;;2.22;;
27684;SDS011;46113;50.130;8.526;2022-10-24T11:54:03;3.22;;;1.33;;
27684;SDS011;46113;50.130;8.526;2022-10-24T11:56:36;5.03;;;0.93;;
27684;SDS011;46113;50.130;8.526;2022-10-24T11:59:25;6.25;;;1.83;;
27684;SDS011;46113;50.130;8.526;2022-10-24T12:07:44;6.30;;;1.10;;
27684;SDS011;46113;50.130;8.526;2022-10-24T12:19:54;4.78;;;1.35;;
27684;SDS011;46113;50.130;8.526;2022-10-24T12:22:22;4.93;;;1.02;;
27684;SDS011;46113;50.130;8.526;2022-10-24T12:27:33;6.97;;;0.93;;
27684;SDS011;46113;50.130;8.526;2022-10-24T12:30:13;6.45;;;0.70;;
27684;SDS011;46113;50.130;8.526;2022-10-24T12:37:57;4.93;;;1.20;;
27684;SDS011;46113;50.130;8.526;2022-10-24T12:40:46;2.88;;;0.65;;
27684;SDS011;46113;50.130;8.526;2022-10-24T12:51:31;3.83;;;0.77;;
27684;SDS011;46113;50.130;8.526;2022-10-24T12:53:58;1.45;;;0.60;;
27684;SDS011;46113;50.130;8.526;2022-10-24T12:56:28;3.45;;;1.48;;
27684;SDS011;46113;50.130;8.526;2022-10-24T12:58:57;3.67;;;0.73;;
27684;SDS011;46113;50.130;8.526;2022-10-24T13:01:43;2.55;;;0.80;;
27684;SDS011;46113;50.130;8.526;2022-10-24T13:07:27;1.88;;;0.70;;
27684;SDS011;46113;50.130;8.526;2022-10-24T13:20:47;3.50;;;0.70;;
27684;SDS011;46113;50.130;8.526;2022-10-24T13:25:53;4.07;;;0.50;;
27684;SDS011;46113;50.130;8.526;2022-10-24T13:37:59;3.00;;;0.60;;
27684;SDS011;46113;50.130;8.526;2022-10-24T13:40:32;6.40;;;0.70;;
27684;SDS011;46113;50.130;8.526;2022-10-24T13:42:59;1.38;;;0.60;;
27684;SDS011;46113;50.130;8.526;2022-10-24T13:48:22;3.40;;;0.88;;
27684;SDS011;46113;50.130;8.526;2022-10-24T13:51:01;2.03;;;0.80;;
27684;SDS011;46113;50.130;8.526;2022-10-24T13:53:40;2.25;;;0.80;;
27684;SDS011;46113;50.130;8.526;2022-10-24T13:56:13;2.30;;;0.68;;
27684;SDS011;46113;50.130;8.526;2022-10-24T13:58:40;3.03;;;0.75;;
27684;SDS011;46113;50.130;8.526;2022-10-24T14:01:18;3.50;;;0.60;;
27684;SDS011;46113;50.130;8.526;2022-10-24T14:03:47;1.08;;;0.65;;
27684;SDS011;46113;50.130;8.526;2022-10-24T14:06:15;1.15;;;0.50;;
27684;SDS011;46113;50.130;8.526;2022-10-24T14:09:04;3.70;;;0.85;;
27684;SDS011;46113;50.130;8.526;2022-10-24T14:11:40;1.35;;;0.80;;
27684;SDS011;46113;50.130;8.526;2022-10-24T14:14:25;3.85;;;1.10;;
27684;SDS011;46113;50.130;8.526;2022-10-24T14:19:56;3.05;;;0.93;;
27684;SDS011;46113;50.130;8.526;2022-10-24T14:22:26;2.75;;;1.05;;
27684;SDS011;46113;50.130;8.526;2022-10-24T14:24:54;1.55;;;0.60;;
27684;SDS011;46113;50.130;8.526;2022-10-24T14:27:22;2.05;;;0.52;;
27684;SDS011;46113;50.130;8.526;2022-10-24T14:29:51;3.80;;;0.60;;
27684;SDS011;46113;50.130;8.526;2022-10-24T14:32:20;1.83;;;1.00;;
27684;SDS011;46113;50.130;8.526;2022-10-24T14:37:42;7.47;;;1.38;;
27684;SDS011;46113;50.130;8.526;2022-10-24T14:40:18;1.90;;;0.88;;
27684;SDS011;46113;50.130;8.526;2022-10-24T14:42:51;1.50;;;0.55;;
27684;SDS011;46113;50.130;8.526;2022-10-24T14:45:26;8.13;;;1.02;;
27684;SDS011;46113;50.130;8.526;2022-10-24T14:47:55;1.17;;;0.60;;
27684;SDS011;46113;50.130;8.526;2022-10-24T14:50:40;3.08;;;1.25;;
27684;SDS011;46113;50.130;8.526;2022-10-24T14:53:19;3.42;;;0.68;;
27684;SDS011;46113;50.130;8.526;2022-10-24T14:55:52;5.43;;;0.77;;
27684;SDS011;46113;50.130;8.526;2022-10-24T14:58:27;5.55;;;0.93;;
27684;SDS011;46113;50.130;8.526;2022-10-24T15:00:56;4.80;;;0.93;;
27684;SDS011;46113;50.130;8.526;2022-10-24T15:03:27;4.18;;;0.50;;
27684;SDS011;46113;50.130;8.526;2022-10-24T15:05:58;2.60;;;0.60;;
27684;SDS011;46113;50.130;8.526;2022-10-24T15:08:34;3.05;;;0.65;;
27684;SDS011;46113;50.130;8.526;2022-10-24T15:11:21;3.35;;;0.60;;
27684;SDS011;46113;50.130;8.526;2022-10-24T15:13:56;2.42;;;0.70;;
27684;SDS011;46113;50.130;8.526;2022-10-24T15:16:37;4.18;;;1.17;;
27684;SDS011;46113;50.130;8.526;2022-10-24T15:19:05;4.10;;;1.13;;
27684;SDS011;46113;50.130;8.526;2022-10-24T15:21:40;2.33;;;0.80;;
27684;SDS011;46113;50.130;8.526;2022-10-24T15:24:17;9.00;;;0.63;;
27684;SDS011;46113;50.130;8.526;2022-10-24T15:26:47;7.28;;;1.23;;
27684;SDS011;46113;50.130;8.526;2022-10-24T15:31:41;2.47;;;0.50;;
27684;SDS011;46113;50.130;8.526;2022-10-24T15:34:13;4.68;;;0.60;;
27684;SDS011;46113;50.130;8.526;2022-10-24T15:36:42;3.08;;;0.70;;
27684;SDS011;46113;50.130;8.526;2022-10-24T15:41:37;4.72;;;0.80;;
27684;SDS011;46113;50.130;8.526;2022-10-24T15:44:05;4.07;;;1.15;;
27684;SDS011;46113;50.130;8.526;2022-10-24T15:46:39;2.03;;;0.60;;
27684;SDS011;46113;50.130;8.526;2022-10-24T15:49:06;2.22;;;0.70;;
27684;SDS011;46113;50.130;8.526;2022-10-24T15:51:32;5.72;;;0.65;;
27684;SDS011;46113;50.130;8.526;2022-10-24T15:53:59;6.90;;;1.13;;
27684;SDS011;46113;50.130;8.526;2022-10-24T15:56:26;2.72;;;0.80;;
27684;SDS011;46113;50.130;8.526;2022-10-24T15:58:52;3.72;;;0.82;;
27684;SDS011;46113;50.130;8.526;2022-10-24T16:01:23;2.10;;;0.60;;
27684;SDS011;46113;50.130;8.526;2022-10-24T16:03:53;5.22;;;0.50;;
27684;SDS011;46113;50.130;8.526;2022-10-24T16:06:20;2.45;;;0.68;;
27684;SDS011;46113;50.130;8.526;2022-10-24T16:08:47;3.08;;;0.75;;
27684;SDS011;46113;50.130;8.526;2022-10-24T16:11:14;5.68;;;0.93;;
27684;SDS011;46113;50.130;8.526;2022-10-24T16:13:40;3.95;;;0.50;;
27684;SDS011;46113;50.130;8.526;2022-10-24T16:16:07;1.50;;;0.40;;
27684;SDS011;46113;50.130;8.526;2022-10-24T16:18:34;1.23;;;0.30;;
27684;SDS011;46113;50.130;8.526;2022-10-24T16:21:01;7.18;;;1.15;;
27684;SDS011;46113;50.130;8.526;2022-10-24T16:23:30;8.43;;;0.93;;
27684;SDS011;46113;50.130;8.526;2022-10-24T16:25:58;1.60;;;0.28;;
27684;SDS011;46113;50.130;8.526;2022-10-24T16:28:25;3.05;;;0.70;;
27684;SDS011;46113;50.130;8.526;2022-10-24T16:30:56;4.78;;;0.90;;
27684;SDS011;46113;50.130;8.526;2022-10-24T16:33:23;8.07;;;1.20;;
27684;SDS011;46113;50.130;8.526;2022-10-24T16:35:49;5.13;;;1.17;;
27684;SDS011;46113;50.130;8.526;2022-10-24T16:38:16;4.10;;;1.08;;
27684;SDS011;46113;50.130;8.526;2022-10-24T16:40:44;1.67;;;0.50;;
27684;SDS011;46113;50.130;8.526;2022-10-24T16:43:17;6.18;;;0.95;;
27684;SDS011;46113;50.130;8.526;2022-10-24T16:45:44;4.32;;;1.17;;
27684;SDS011;46113;50.130;8.526;2022-10-24T16:48:20;4.32;;;0.70;;
27684;SDS011;46113;50.130;8.526;2022-10-24T16:50:47;1.70;;;0.50;;
27684;SDS011;46113;50.130;8.526;2022-10-24T16:53:13;2.75;;;0.57;;
27684;SDS011;46113;50.130;8.526;2022-10-24T16:55:47;4.25;;;0.90;;
27684;SDS011;46113;50.130;8.526;2022-10-24T16:58:15;2.05;;;0.55;;
27684;SDS011;46113;50.130;8.526;2022-10-24T17:00:59;2.83;;;1.13;;
27684;SDS011;46113;50.130;8.526;2022-10-24T17:03:31;2.70;;;0.82;;
27684;SDS011;46113;50.130;8.526;2022-10-24T17:05:58;4.63;;;1.85;;
27684;SDS011;46113;50.130;8.526;2022-10-24T17:08:25;4.57;;;0.93;;
27684;SDS011;46113;50.130;8.526;2022-10-24T17:10:55;5.15;;;0.65;;
27684;SDS011;46113;50.130;8.526;2022-10-24T17:13:22;6.55;;;0.90;;
27684;SDS011;46113;50.130;8.526;2022-10-24T17:15:50;6.03;;;0.70;;
27684;SDS011;46113;50.130;8.526;2022-10-24T17:18:16;3.67;;;1.58;;
27684;SDS011;46113;50.130;8.526;2022-10-24T17:20:45;1.73;;;0.80;;
27684;SDS011;46113;50.130;8.526;2022-10-24T17:23:13;5.18;;;1.50;;
27684;SDS011;46113;50.130;8.526;2022-10-24T17:25:43;4.45;;;0.85;;
27684;SDS011;46113;50.130;8.526;2022-10-24T17:28:12;3.53;;;1.42;;
27684;SDS011;46113;50.130;8.526;2022-10-24T17:30:39;4.30;;;1.23;;
27684;SDS011;46113;50.130;8.526;2022-10-24T17:33:06;6.82;;;1.10;;
27684;SDS011;46113;50.130;8.526;2022-10-24T17:35:35;5.82;;;1.00;;
27684;SDS011;46113;50.130;8.526;2022-10-24T17:40:43;5.57;;;1.40;;
27684;SDS011;46113;50.130;8.526;2022-10-24T17:43:19;3.90;;;0.90;;
27684;SDS011;46113;50.130;8.526;2022-10-24T17:45:47;4.40;;;1.15;;
27684;SDS011;46113;50.130;8.526;2022-10-24T17:48:15;5.18;;;1.70;;
27684;SDS011;46113;50.130;8.526;2022-10-24T17:50:42;10.48;;;2.25;;
27684;SDS011;46113;50.130;8.526;2022-10-24T17:53:16;2.92;;;1.40;;
27684;SDS011;46113;50.130;8.526;2022-10-24T17:55:43;4.40;;;1.48;;
27684;SDS011;46113;50.130;8.526;2022-10-24T17:58:13;4.82;;;1.40;;
27684;SDS011;46113;50.130;8.526;2022-10-24T18:00:44;2.75;;;1.10;;
27684;SDS011;46113;50.130;8.526;2022-10-24T18:03:12;2.15;;;0.90;;
27684;SDS011;46113;50.130;8.526;2022-10-24T18:05:38;7.95;;;1.05;;
27684;SDS011;46113;50.130;8.526;2022-10-24T18:08:07;7.10;;;1.00;;
27684;SDS011;46113;50.130;8.526;2022-10-24T18:10:38;5.07;;;1.55;;
27684;SDS011;46113;50.130;8.526;2022-10-24T18:13:05;8.52;;;1.60;;
27684;SDS011;46113;50.130;8.526;2022-10-24T18:15:33;12.20;;;2.80;;
27684;SDS011;46113;50.130;8.526;2022-10-24T18:18:01;5.10;;;1.38;;
27684;SDS011;46113;50.130;8.526;2022-10-24T18:20:27;8.43;;;1.33;;
27684;SDS011;46113;50.130;8.526;2022-10-24T18:22:55;7.13;;;1.40;;
27684;SDS011;46113;50.130;8.526;2022-10-24T18:25:22;2.63;;;1.17;;
27684;SDS011;46113;50.130;8.526;2022-10-24T18:27:49;5.30;;;2.20;;
27684;SDS011;46113;50.130;8.526;2022-10-24T18:30:16;5.80;;;1.08;;
27684;SDS011;46113;50.130;8.526;2022-10-24T18:32:45;4.40;;;0.77;;
27684;SDS011;46113;50.130;8.526;2022-10-24T18:35:13;7.90;;;1.30;;
27684;SDS011;46113;50.130;8.526;2022-10-24T18:37:44;4.18;;;0.60;;
27684;SDS011;46113;50.130;8.526;2022-10-24T18:40:10;3.85;;;0.80;;
27684;SDS011;46113;50.130;8.526;2022-10-24T18:45:30;7.35;;;0.82;;
27684;SDS011;46113;50.130;8.526;2022-10-24T18:47:57;7.25;;;0.90;;
27684;SDS011;46113;50.130;8.526;2022-10-24T18:50:27;6.35;;;1.58;;
27684;SDS011;46113;50.130;8.526;2022-10-24T18:53:04;5.60;;;1.10;;
27684;SDS011;46113;50.130;8.526;2022-10-24T18:55:34;11.68;;;1.63;;
27684;SDS011;46113;50.130;8.526;2022-10-24T18:58:01;4.35;;;1.20;;
27684;SDS011;46113;50.130;8.526;2022-10-24T19:00:29;11.45;;;1.52;;
27684;SDS011;46113;50.130;8.526;2022-10-24T19:03:05;3.08;;;1.52;;
27684;SDS011;46113;50.130;8.526;2022-10-24T19:08:21;9.05;;;1.70;;
27684;SDS011;46113;50.130;8.526;2022-10-24T19:10:49;6.97;;;2.08;;
27684;SDS011;46113;50.130;8.526;2022-10-24T19:13:22;5.18;;;1.45;;
27684;SDS011;46113;50.130;8.526;2022-10-24T19:15:54;4.75;;;1.40;;
27684;SDS011;46113;50.130;8.526;2022-10-24T19:18:26;1.50;;;0.95;;
27684;SDS011;46113;50.130;8.526;2022-10-24T19:20:55;6.40;;;1.58;;
27684;SDS011;46113;50.130;8.526;2022-10-24T19:23:21;2.78;;;1.75;;
27684;SDS011;46113;50.130;8.526;2022-10-24T19:25:49;11.77;;;1.50;;
27684;SDS011;46113;50.130;8.526;2022-10-24T19:28:17;5.50;;;1.85;;
27684;SDS011;46113;50.130;8.526;2022-10-24T19:30:44;5.47;;;1.15;;
27684;SDS011;46113;50.130;8.526;2022-10-24T19:33:12;2.90;;;1.58;;
27684;SDS011;46113;50.130;8.526;2022-10-24T19:35:40;5.85;;;1.85;;
27684;SDS011;46113;50.130;8.526;2022-10-24T19:38:12;10.43;;;1.40;;
27684;SDS011;46113;50.130;8.526;2022-10-24T19:40:43;5.10;;;1.52;;
27684;SDS011;46113;50.130;8.526;2022-10-24T19:43:14;4.97;;;2.05;;
27684;SDS011;46113;50.130;8.526;2022-10-24T19:45:43;7.00;;;1.40;;
27684;SDS011;46113;50.130;8.526;2022-10-24T19:48:22;6.35;;;1.70;;
27684;SDS011;46113;50.130;8.526;2022-10-24T19:50:49;6.85;;;1.17;;
27684;SDS011;46113;50.130;8.526;2022-10-24T19:53:16;4.57;;;1.48;;
27684;SDS011;46113;50.130;8.526;2022-10-24T19:55:43;5.60;;;1.55;;
27684;SDS011;46113;50.130;8.526;2022-10-24T19:58:11;2.67;;;1.23;;
27684;SDS011;46113;50.130;8.526;2022-10-24T20:00:43;8.20;;;1.58;;
27684;SDS011;46113;50.130;8.526;2022-10-24T20:03:09;4.07;;;1.38;;
27684;SDS011;46113;50.130;8.526;2022-10-24T20:05:40;4.60;;;1.10;;
27684;SDS011;46113;50.130;8.526;2022-10-24T20:08:07;7.40;;;1.42;;
27684;SDS011;46113;50.130;8.526;2022-10-24T20:10:33;4.80;;;1.38;;
27684;SDS011;46113;50.130;8.526;2022-10-24T20:13:00;5.72;;;1.30;;
27684;SDS011;46113;50.130;8.526;2022-10-24T20:15:30;8.68;;;2.85;;
27684;SDS011;46113;50.130;8.526;2022-10-24T20:17:56;9.18;;;1.60;;
27684;SDS011;46113;50.130;8.526;2022-10-24T20:20:23;5.43;;;1.20;;
27684;SDS011;46113;50.130;8.526;2022-10-24T20:22:50;3.95;;;1.30;;
27684;SDS011;46113;50.130;8.526;2022-10-24T20:25:16;3.47;;;1.00;;
27684;SDS011;46113;50.130;8.526;2022-10-24T20:27:43;10.68;;;1.35;;
27684;SDS011;46113;50.130;8.526;2022-10-24T20:30:18;2.70;;;1.13;;
27684;SDS011;46113;50.130;8.526;2022-10-24T20:32:44;5.85;;;1.00;;
27684;SDS011;46113;50.130;8.526;2022-10-24T20:35:11;5.43;;;1.10;;
27684;SDS011;46113;50.130;8.526;2022-10-24T20:37:37;4.40;;;1.38;;
27684;SDS011;46113;50.130;8.526;2022-10-24T20:40:04;7.78;;;1.80;;
27684;SDS011;46113;50.130;8.526;2022-10-24T20:42:31;3.42;;;1.15;;
27684;SDS011;46113;50.130;8.526;2022-10-24T20:44:57;8.82;;;1.27;;
27684;SDS011;46113;50.130;8.526;2022-10-24T20:47:24;4.82;;;0.88;;
27684;SDS011;46113;50.130;8.526;2022-10-24T20:49:53;6.05;;;1.48;;
27684;SDS011;46113;50.130;8.526;2022-10-24T20:52:20;6.18;;;1.08;;
27684;SDS011;46113;50.130;8.526;2022-10-24T20:54:46;3.60;;;0.98;;
27684;SDS011;46113;50.130;8.526;2022-10-24T20:57:13;5.13;;;0.90;;
27684;SDS011;46113;50.130;8.526;2022-10-24T20:59:40;5.72;;;1.50;;
27684;SDS011;46113;50.130;8.526;2022-10-24T21:02:07;4.07;;;1.15;;
27684;SDS011;46113;50.130;8.526;2022-10-24T21:04:35;5.85;;;1.13;;
27684;SDS011;46113;50.130;8.526;2022-10-24T21:07:02;10.15;;;1.08;;
27684;SDS011;46113;50.130;8.526;2022-10-24T21:09:28;5.45;;;1.05;;
27684;SDS011;46113;50.130;8.526;2022-10-24T21:11:55;6.65;;;1.48;;
27684;SDS011;46113;50.130;8.526;2022-10-24T21:14:21;3.55;;;0.98;;
27684;SDS011;46113;50.130;8.526;2022-10-24T21:16:47;9.18;;;3.33;;
27684;SDS011;46113;50.130;8.526;2022-10-24T21:19:14;5.75;;;2.15;;
27684;SDS011;46113;50.130;8.526;2022-10-24T21:21:40;4.55;;;1.13;;
27684;SDS011;46113;50.130;8.526;2022-10-24T21:24:10;14.65;;;1.48;;
27684;SDS011;46113;50.130;8.526;2022-10-24T21:26:39;5.22;;;1.23;;
27684;SDS011;46113;50.130;8.526;2022-10-24T21:29:06;5.70;;;1.27;;
27684;SDS011;46113;50.130;8.526;2022-10-24T21:31:53;4.15;;;2.00;;
27684;SDS011;46113;50.130;8.526;2022-10-24T21:34:19;9.18;;;1.40;;
27684;SDS011;46113;50.130;8.526;2022-10-24T21:36:45;7.75;;;1.10;;
27684;SDS011;46113;50.130;8.526;2022-10-24T21:39:13;4.72;;;0.98;;
27684;SDS011;46113;50.130;8.526;2022-10-24T21:41:41;4.45;;;1.00;;
27684;SDS011;46113;50.130;8.526;2022-10-24T21:44:08;5.22;;;1.00;;